Terminal Aerodrome Forecast
Issued by NWS Charleston, WV

Current Version | Previous Version | Text Only | Print | Product List | Glossary Off
Versions: 1 2 3 4 5 6 7 8 9 10 11 12 13 14 15 16 17 18 19 20 21 22 23 24 25 26 27

000
FTUS41 KRLX 260400 AAB
TAFBKW
TAF AMD
KBKW 260413Z 2604/2624 VRB04KT P6SM SCT025 OVC035
     FM260600 16007KT 4SM -RA BR SCT025 BKN035
     FM261000 17004KT 2SM -RA BR OVC015
     FM261200 VRB03KT 1SM -RA BR OVC008
     FM261500 21005KT 2SM -RASN BR OVC003=

USA.gov is the U.S. government's official web portal to all federal, state and local government web resources and services.